createdAt,value
2022-11-15T00:01:22.056Z,99759.91
2022-11-15T00:04:11.218Z,99758.75
2022-11-15T00:06:59.258Z,99761.00
2022-11-15T00:09:47.697Z,99752.75
2022-11-15T00:12:35.628Z,99751.56
2022-11-15T00:15:26.192Z,99747.63
2022-11-15T00:18:16.955Z,99752.56
2022-11-15T00:21:09.733Z,99748.69
2022-11-15T00:23:57.727Z,99751.94
2022-11-15T00:26:45.912Z,99751.63
2022-11-15T00:29:34.156Z,99750.44
2022-11-15T00:32:24.653Z,99759.00
2022-11-15T00:35:12.566Z,99749.97
2022-11-15T00:38:00.498Z,99742.56
2022-11-15T00:40:48.531Z,99743.94
2022-11-15T00:43:36.978Z,99745.41
2022-11-15T00:46:24.899Z,99747.72
2022-11-15T00:49:15.359Z,99745.44
2022-11-15T00:52:03.461Z,99741.50
2022-11-15T00:54:51.468Z,99736.72
2022-11-15T00:57:39.341Z,99744.34
2022-11-15T01:00:27.253Z,99745.88
2022-11-15T01:03:15.274Z,99749.03
2022-11-15T01:06:07.026Z,99744.41
2022-11-15T01:08:55.386Z,99736.22
2022-11-15T01:11:43.502Z,99736.03
2022-11-15T01:14:31.738Z,99740.22
2022-11-15T01:17:20.007Z,99737.47
2022-11-15T01:20:09.483Z,99731.13
2022-11-15T01:23:00.264Z,99727.47
2022-11-15T01:25:48.211Z,99721.13
2022-11-15T01:28:36.422Z,99722.75
2022-11-15T01:31:25.447Z,99726.25
2022-11-15T01:34:13.908Z,99727.00
2022-11-15T01:37:02.245Z,99725.22
2022-11-15T01:39:52.979Z,99718.88
2022-11-15T01:42:40.961Z,99717.88
2022-11-15T01:45:29.116Z,99715.97
2022-11-15T01:48:17.434Z,99709.63
2022-11-15T01:51:08.876Z,99715.69
2022-11-15T01:53:59.971Z,99723.56
2022-11-15T01:56:57.531Z,99715.44
2022-11-15T01:59:47.223Z,99712.69
2022-11-15T02:02:36.631Z,99711.66
2022-11-15T02:05:24.649Z,99708.06
2022-11-15T02:08:21.086Z,99702.66
2022-11-15T02:11:11.735Z,99697.25
2022-11-15T02:14:03.169Z,99696.31
2022-11-15T02:16:57.676Z,99687.41
2022-11-15T02:20:08.989Z,99692.66
2022-11-15T02:23:09.304Z,99675.75
2022-11-15T02:26:08.557Z,99673.00
2022-11-15T02:29:05.643Z,99677.38
2022-11-15T02:32:00.840Z,99682.69
2022-11-15T02:34:55.015Z,99669.41
2022-11-15T02:37:47.054Z,99670.34
2022-11-15T02:40:42.789Z,99666.78
2022-11-15T02:43:47.157Z,99670.34
2022-11-15T02:46:54.204Z,99673.00
2022-11-15T02:49:47.091Z,99670.34
2022-11-15T02:52:35.234Z,99670.34
2022-11-15T02:55:31.456Z,99666.78
2022-11-15T02:58:36.570Z,99663.19
2022-11-15T03:01:33.428Z,99666.78
2022-11-15T03:04:27.660Z,99666.78
2022-11-15T03:07:21.481Z,99668.47
2022-11-15T03:10:11.560Z,99664.13
2022-11-15T03:13:01.288Z,99663.19
2022-11-15T03:15:56.958Z,99662.25
2022-11-15T03:18:47.608Z,99655.13
2022-11-15T03:21:37.845Z,99664.88
2022-11-15T03:24:29.641Z,99663.09
2022-11-15T03:27:20.121Z,99668.28
2022-11-15T03:30:11.400Z,99663.75
2022-11-15T03:33:00.697Z,99663.66
2022-11-15T03:35:49.976Z,99652.97
2022-11-15T03:38:38.666Z,99651.03
2022-11-15T03:41:33.765Z,99653.63
2022-11-15T03:44:28.108Z,99650.88
2022-11-15T03:47:20.030Z,99646.41
2022-11-15T03:50:11.538Z,99642.81
2022-11-15T03:52:59.846Z,99645.47
2022-11-15T03:55:47.777Z,99646.22
2022-11-15T03:58:38.587Z,99649.75
2022-11-15T04:01:26.858Z,99646.13
2022-11-15T04:04:15.638Z,99644.25
2022-11-15T04:07:04.033Z,99637.03
2022-11-15T04:10:07.356Z,99635.16
2022-11-15T04:12:55.405Z,99630.78
2022-11-15T04:15:46.025Z,99632.59
2022-11-15T04:18:33.976Z,99632.69
2022-11-15T04:21:34.415Z,99642.34
2022-11-15T04:24:22.734Z,99634.56
2022-11-15T04:27:11.147Z,99634.97
2022-11-15T04:30:00.942Z,99628.59
2022-11-15T04:32:51.791Z,99632.75
2022-11-15T04:35:39.723Z,99634.06
2022-11-15T04:38:25.113Z,99630.91
2022-11-15T04:41:13.145Z,99636.41
2022-11-15T04:44:01.153Z,99626.84
2022-11-15T04:46:50.205Z,99626.84
2022-11-15T04:49:40.740Z,99631.94
2022-11-15T04:52:28.719Z,99630.91
2022-11-15T04:55:16.828Z,99628.94
2022-11-15T04:58:06.162Z,99617.91
2022-11-15T05:00:54.407Z,99622.81
2022-11-15T05:03:55.274Z,99611.94
2022-11-15T05:06:46.231Z,99615.03
2022-11-15T05:09:34.286Z,99620.94
2022-11-15T05:12:22.182Z,99617.91
2022-11-15T05:15:11.081Z,99626.50
2022-11-15T05:18:02.114Z,99619.22
2022-11-15T05:20:50.490Z,99631.34
2022-11-15T05:23:41.472Z,99626.75
2022-11-15T05:26:30.304Z,99625.72
2022-11-15T05:29:18.392Z,99627.41
2022-11-15T05:32:07.415Z,99613.28
2022-11-15T05:34:55.932Z,99619.28
2022-11-15T05:37:44.355Z,99616.63
2022-11-15T05:40:35.679Z,99614.91
2022-11-15T05:43:23.744Z,99613.97
2022-11-15T05:46:11.823Z,99611.31
2022-11-15T05:49:00.492Z,99616.50
2022-11-15T05:51:48.860Z,99616.63
2022-11-15T05:54:37.951Z,99610.34
2022-11-15T05:57:28.554Z,99618.28
2022-11-15T06:00:17.372Z,99628.91
2022-11-15T06:03:05.601Z,99624.47
2022-11-15T06:05:53.625Z,99622.75
2022-11-15T06:08:41.645Z,99624.47
2022-11-15T06:11:29.429Z,99628.81
2022-11-15T06:14:19.970Z,99634.06
2022-11-15T06:17:11.364Z,99627.03
2022-11-15T06:19:59.883Z,99627.78
2022-11-15T06:22:48.104Z,99624.38
2022-11-15T06:25:36.457Z,99641.25
2022-11-15T06:28:24.369Z,99641.25
2022-11-15T06:31:15.367Z,99638.69
2022-11-15T06:34:03.361Z,99651.13
2022-11-15T06:36:51.388Z,99650.34
2022-11-15T06:39:39.561Z,99652.25
2022-11-15T06:42:27.657Z,99647.56
2022-11-15T06:45:15.583Z,99660.53
2022-11-15T06:48:06.141Z,99654.38
2022-11-15T06:50:55.485Z,99660.47
2022-11-15T06:53:43.624Z,99667.56
2022-11-15T06:56:31.752Z,99669.88
2022-11-15T06:59:19.616Z,99675.28
2022-11-15T07:02:07.552Z,99675.97
2022-11-15T07:04:58.172Z,99674.66
2022-11-15T07:07:46.405Z,99676.88
2022-11-15T07:10:34.312Z,99678.22
2022-11-15T07:13:22.267Z,99680.47
2022-11-15T07:16:12.591Z,99682.88
2022-11-15T07:19:00.960Z,99689.81
2022-11-15T07:21:51.824Z,99694.06
2022-11-15T07:24:39.801Z,99699.47
2022-11-15T07:27:27.679Z,99699.63
2022-11-15T07:30:17.077Z,99703.31
2022-11-15T07:33:05.489Z,99710.44
2022-11-15T07:35:53.823Z,99711.13
2022-11-15T07:38:44.256Z,99719.47
2022-11-15T07:41:32.909Z,99717.97
2022-11-15T07:44:21.058Z,99719.13
2022-11-15T07:47:09.273Z,99718.66
2022-11-15T07:49:57.355Z,99715.56
2022-11-15T07:52:45.380Z,99719.84
2022-11-15T07:55:36.355Z,99719.63
2022-11-15T07:58:24.247Z,99717.38
2022-11-15T08:01:15.225Z,99711.28
2022-11-15T08:04:03.423Z,99713.28
2022-11-15T08:06:51.405Z,99723.44
2022-11-15T08:09:39.461Z,99712.59
2022-11-15T08:12:30.490Z,99714.03
2022-11-15T08:15:19.015Z,99723.13
2022-11-15T08:18:09.388Z,99719.88
2022-11-15T08:21:02.668Z,99723.06
2022-11-15T08:23:50.702Z,99717.97
2022-11-15T08:26:39.077Z,99720.63
2022-11-15T08:29:30.056Z,99713.06
2022-11-15T08:32:18.834Z,99722.56
2022-11-15T08:35:07.925Z,99710.22
2022-11-15T08:37:58.080Z,99714.59
2022-11-15T08:40:46.344Z,99712.59
2022-11-15T08:43:34.819Z,99713.06
2022-11-15T08:46:26.296Z,99711.16
2022-11-15T08:49:14.577Z,99704.88
2022-11-15T08:52:02.791Z,99699.63
2022-11-15T08:54:50.970Z,99690.13
2022-11-15T08:57:39.102Z,99693.03
2022-11-15T09:00:27.600Z,99695.69
2022-11-15T09:03:18.899Z,99688.06
2022-11-15T09:06:07.332Z,99677.94
2022-11-15T09:08:55.604Z,99670.03
2022-11-15T09:11:44.121Z,99662.00
2022-11-15T09:14:32.060Z,99670.91
2022-11-15T09:17:24.455Z,99659.81
2022-11-15T09:20:16.092Z,99660.94
2022-11-15T09:23:04.797Z,99665.00
2022-11-15T09:25:52.844Z,99675.78
2022-11-15T09:28:42.853Z,99671.22
2022-11-15T09:31:30.879Z,99668.72
2022-11-15T09:34:18.808Z,99664.28
2022-11-15T09:37:09.363Z,99664.41
2022-11-15T09:39:57.636Z,99667.47
2022-11-15T09:42:54.120Z,99657.50
2022-11-15T09:45:56.102Z,99652.50
2022-11-15T09:48:54.295Z,99649.22
2022-11-15T09:51:47.724Z,99645.25
2022-11-15T09:57:19.621Z,99636.50
2022-11-15T09:59:56.360Z,99628.03
2022-11-15T10:02:43.800Z,99620.56
2022-11-15T10:05:16.857Z,99615.75
2022-11-15T10:07:53.761Z,99612.31
2022-11-15T10:10:33.072Z,99604.03
2022-11-15T10:13:02.916Z,99611.16
2022-11-15T10:15:32.494Z,99594.44
2022-11-15T10:18:16.458Z,99597.00
2022-11-15T10:20:51.401Z,99587.03
2022-11-15T10:23:22.960Z,99587.25
2022-11-15T10:26:01.171Z,99585.28
2022-11-15T10:28:35.564Z,99586.16
2022-11-15T10:31:05.810Z,99579.03
2022-11-15T10:33:37.267Z,99580.53
2022-11-15T10:36:24.859Z,99570.34
2022-11-15T10:38:57.943Z,99573.00
2022-11-15T10:41:39.216Z,99574.81
2022-11-15T10:44:27.385Z,99576.19
2022-11-15T10:47:24.999Z,99565.66
2022-11-15T10:49:58.798Z,99568.44
2022-11-15T10:52:28.483Z,99565.00
2022-11-15T10:55:00.753Z,99566.00
2022-11-15T10:57:34.900Z,99563.41
2022-11-15T11:00:07.650Z,99561.75
2022-11-15T11:02:40.257Z,99552.13
2022-11-15T11:05:30.406Z,99539.25
2022-11-15T11:08:02.246Z,99535.09
2022-11-15T11:13:29.035Z,99534.47
2022-11-15T11:16:15.498Z,99541.38
2022-11-15T11:18:52.895Z,99534.13
2022-11-15T11:21:31.958Z,99518.84
2022-11-15T11:24:08.841Z,99531.16
2022-11-15T11:26:46.687Z,99524.88
2022-11-15T11:29:37.474Z,99512.44
2022-11-15T11:32:13.391Z,99517.00
2022-11-15T11:34:51.446Z,99523.28
2022-11-15T11:37:24.821Z,99514.56
2022-11-15T11:40:07.529Z,99511.16
2022-11-15T11:42:45.994Z,99512.22
2022-11-15T11:45:25.528Z,99505.00
2022-11-15T11:48:00.307Z,99507.75
2022-11-15T11:50:31.098Z,99509.47
2022-11-15T11:53:04.403Z,99505.84
2022-11-15T11:55:37.453Z,99495.19
2022-11-15T11:58:14.936Z,99487.22
2022-11-15T12:00:50.487Z,99489.16
2022-11-15T12:03:26.192Z,99502.44
2022-11-15T12:05:58.868Z,99494.47
2022-11-15T12:08:36.308Z,99503.28
2022-11-15T12:11:12.478Z,99505.84
2022-11-15T12:13:42.271Z,99494.34
2022-11-15T12:16:19.100Z,99487.09
2022-11-15T12:18:51.543Z,99481.78
2022-11-15T12:21:28.463Z,99481.59
2022-11-15T12:24:05.179Z,99476.91
2022-11-15T12:26:38.398Z,99468.66
2022-11-15T12:29:15.423Z,99466.47
2022-11-15T12:31:49.486Z,99445.97
2022-11-15T12:34:20.173Z,99443.31
2022-11-15T12:36:50.921Z,99433.00
2022-11-15T12:39:21.851Z,99434.78
2022-11-15T12:42:42.747Z,99422.44
2022-11-15T12:45:30.821Z,99430.63
2022-11-15T12:48:38.368Z,99421.72
2022-11-15T12:51:08.328Z,99411.16
2022-11-15T12:53:38.357Z,99404.03
2022-11-15T12:56:25.221Z,99407.59
2022-11-15T12:58:58.350Z,99407.59
2022-11-15T13:01:57.971Z,99396.59
2022-11-15T13:04:33.000Z,99397.13
2022-11-15T13:07:04.608Z,99386.13
2022-11-15T13:09:57.052Z,99384.13
2022-11-15T13:12:54.623Z,99374.31
2022-11-15T13:15:44.357Z,99372.84
2022-11-15T13:18:42.611Z,99367.97
2022-11-15T13:21:40.684Z,99366.69
2022-11-15T13:24:16.455Z,99360.63
2022-11-15T13:26:46.272Z,99357.88
2022-11-15T13:29:20.550Z,99368.94
2022-11-15T13:31:50.381Z,99356.88
2022-11-15T13:34:51.935Z,99351.84
2022-11-15T13:37:35.421Z,99350.22
2022-11-15T13:40:22.667Z,99352.41
2022-11-15T13:42:52.297Z,99339.63
2022-11-15T13:45:22.592Z,99343.00
2022-11-15T13:47:57.429Z,99333.94
2022-11-15T13:50:29.462Z,99332.88
2022-11-15T13:53:05.561Z,99318.47
2022-11-15T13:55:36.135Z,99318.25
2022-11-15T13:58:08.943Z,99320.06
2022-11-15T14:00:41.708Z,99320.19
2022-11-15T14:03:19.140Z,99315.09
2022-11-15T14:05:50.649Z,99312.56
2022-11-15T14:08:28.051Z,99303.69
2022-11-15T14:11:12.988Z,99295.72
2022-11-15T14:13:42.803Z,99289.69
2022-11-15T14:16:23.294Z,99286.16
2022-11-15T14:18:54.045Z,99284.22
2022-11-15T14:21:23.992Z,99285.31
2022-11-15T14:23:56.217Z,99281.91
2022-11-15T14:26:33.481Z,99280.22
2022-11-15T14:29:27.717Z,99273.31
2022-11-15T14:32:14.538Z,99271.84
2022-11-15T14:34:44.708Z,99258.03
2022-11-15T14:37:23.194Z,99249.53
2022-11-15T14:39:56.267Z,99242.88
2022-11-15T14:42:31.667Z,99238.00
2022-11-15T14:45:01.540Z,99234.88
2022-11-15T14:47:31.080Z,99229.88
2022-11-15T14:50:00.696Z,99246.06
2022-11-15T14:52:34.356Z,99231.25
2022-11-15T14:55:17.923Z,99222.66
2022-11-15T14:57:47.521Z,99224.59
2022-11-15T15:00:18.129Z,99217.56
2022-11-15T15:02:49.205Z,99218.63
2022-11-15T15:05:20.824Z,99213.56
2022-11-15T15:07:50.878Z,99210.19
2022-11-15T15:10:40.696Z,99198.69
2022-11-15T15:13:18.458Z,99195.31
2022-11-15T15:15:48.317Z,99197.22
2022-11-15T15:18:18.060Z,99182.22
2022-11-15T15:20:49.242Z,99178.94
2022-11-15T15:23:20.278Z,99181.81
2022-11-15T15:25:53.778Z,99172.38
2022-11-15T15:28:23.385Z,99171.88
2022-11-15T15:30:53.773Z,99166.06
2022-11-15T15:33:23.482Z,99163.63
2022-11-15T15:35:53.079Z,99145.22
2022-11-15T15:38:22.673Z,99141.84
2022-11-15T15:40:55.697Z,99141.09
2022-11-15T15:43:25.244Z,99152.91
2022-11-15T15:45:54.941Z,99148.06
2022-11-15T15:48:24.571Z,99157.22
2022-11-15T15:50:54.158Z,99140.88
2022-11-15T15:53:23.807Z,99150.88
2022-11-15T15:55:56.025Z,99148.44
2022-11-15T15:58:25.612Z,99152.28
2022-11-15T16:00:55.402Z,99143.56
2022-11-15T16:03:25.013Z,99130.28
2022-11-15T16:05:54.818Z,99132.94
2022-11-15T16:08:25.386Z,99144.44
2022-11-15T16:10:57.594Z,99135.59
2022-11-15T16:13:27.196Z,99135.59
2022-11-15T16:15:59.458Z,99130.41
2022-11-15T16:18:29.036Z,99137.63
2022-11-15T16:20:58.600Z,99130.63
2022-11-15T16:23:28.188Z,99121.06
2022-11-15T16:26:04.406Z,99116.72
2022-11-15T16:28:35.446Z,99123.72
2022-11-15T16:31:07.520Z,99105.13
2022-11-15T16:33:37.259Z,99102.38
2022-11-15T16:36:08.148Z,99114.56
2022-11-15T16:38:40.068Z,99103.84
2022-11-15T16:41:12.656Z,99112.44
2022-11-15T16:43:42.362Z,99115.81
2022-11-15T16:46:17.386Z,99121.75
2022-11-15T16:48:47.481Z,99115.38
2022-11-15T16:51:17.333Z,99117.09
2022-11-15T16:53:48.924Z,99117.81
2022-11-15T16:56:26.850Z,99106.97
2022-11-15T16:58:58.634Z,99108.66
2022-11-15T17:01:29.949Z,99106.88
2022-11-15T17:04:00.014Z,99102.38
2022-11-15T17:06:29.992Z,99105.78
2022-11-15T17:09:00.034Z,99117.25
2022-11-15T17:11:32.193Z,99099.50
2022-11-15T17:14:01.931Z,99103.03
2022-11-15T17:16:31.512Z,99097.59
2022-11-15T17:19:01.783Z,99100.25
2022-11-15T17:21:33.813Z,99100.25
2022-11-15T17:24:03.499Z,99102.91
2022-11-15T17:26:40.293Z,99100.97
2022-11-15T17:29:10.653Z,99097.47
2022-11-15T17:31:40.859Z,99103.63
2022-11-15T17:34:10.879Z,99106.28
2022-11-15T17:36:40.629Z,99107.25
2022-11-15T17:39:10.182Z,99095.66
2022-11-15T17:41:42.410Z,99104.50
2022-11-15T17:44:12.050Z,99104.59
2022-11-15T17:46:41.751Z,99108.94
2022-11-15T17:49:11.321Z,99105.56
2022-11-15T17:51:40.950Z,99098.44
2022-11-15T17:54:14.209Z,99108.09
2022-11-15T17:56:46.355Z,99107.25
2022-11-15T17:59:20.172Z,99104.69
2022-11-15T18:01:51.155Z,99101.44
2022-11-15T18:04:20.733Z,99102.84
2022-11-15T18:06:50.499Z,99098.63
2022-11-15T18:09:21.852Z,99098.16
2022-11-15T18:11:54.765Z,99094.91
2022-11-15T18:14:26.130Z,99096.03
2022-11-15T18:16:56.058Z,99089.94
2022-11-15T18:19:25.648Z,99087.28
2022-11-15T18:22:01.850Z,99077.44
2022-11-15T18:24:33.548Z,99085.28
2022-11-15T18:27:07.673Z,99080.00
2022-11-15T18:29:38.087Z,99067.34
2022-11-15T18:32:12.444Z,99071.56
2022-11-15T18:34:42.277Z,99072.09
2022-11-15T18:37:11.872Z,99070.81
2022-11-15T18:39:41.445Z,99059.69
2022-11-15T18:42:13.593Z,99064.31
2022-11-15T18:44:43.149Z,99060.28
2022-11-15T18:47:12.754Z,99055.22
2022-11-15T18:49:42.532Z,99051.91
2022-11-15T18:52:12.213Z,99055.50
2022-11-15T18:54:41.780Z,99051.25
2022-11-15T18:57:13.949Z,99049.66
2022-11-15T18:59:43.601Z,99043.72
2022-11-15T19:02:14.685Z,99037.66
2022-11-15T19:04:44.283Z,99046.66
2022-11-15T19:07:13.929Z,99036.16
2022-11-15T19:09:43.992Z,99044.31
2022-11-15T19:12:19.191Z,99035.66
2022-11-15T19:14:48.804Z,99033.00
2022-11-15T19:17:18.391Z,99035.72
2022-11-15T19:19:48.528Z,99026.09
2022-11-15T19:22:18.247Z,99027.06
2022-11-15T19:24:47.811Z,99028.81
2022-11-15T19:27:20.308Z,99025.44
2022-11-15T19:29:49.869Z,99022.91
2022-11-15T19:32:19.483Z,99022.03
2022-11-15T19:34:49.034Z,99026.50
2022-11-15T19:37:18.709Z,99016.00
2022-11-15T19:39:48.362Z,99021.41
2022-11-15T19:42:20.590Z,99010.81
2022-11-15T19:44:50.129Z,99008.06
2022-11-15T19:47:19.730Z,99019.50
2022-11-15T19:49:49.399Z,99015.91
2022-11-15T19:52:20.922Z,98997.47
2022-11-15T19:54:50.649Z,99007.13
2022-11-15T19:57:22.856Z,99002.56
2022-11-15T19:59:52.424Z,99010.50
2022-11-15T20:02:21.996Z,99013.91
2022-11-15T20:04:51.596Z,99005.88
2022-11-15T20:07:21.330Z,99012.00
2022-11-15T20:09:50.931Z,99000.38
2022-11-15T20:12:23.165Z,98999.53
2022-11-15T20:14:52.737Z,98995.94
2022-11-15T20:17:22.378Z,98994.97
2022-11-15T20:19:51.940Z,98994.13
2022-11-15T20:22:21.493Z,98995.94
2022-11-15T20:24:51.329Z,98988.00
2022-11-15T20:27:23.533Z,98995.06
2022-11-15T20:29:54.600Z,99004.81
2022-11-15T20:32:24.388Z,98995.19
2022-11-15T20:34:54.295Z,98990.81
2022-11-15T20:37:23.924Z,98992.63
2022-11-15T20:39:53.527Z,98982.03
2022-11-15T20:42:25.782Z,98971.34
2022-11-15T20:44:55.333Z,98978.47
2022-11-15T20:47:29.183Z,98984.59
2022-11-15T20:50:14.892Z,98974.84
2022-11-15T20:52:49.885Z,98981.09
2022-11-15T20:55:19.713Z,98972.28
2022-11-15T20:57:52.151Z,98972.28
2022-11-15T21:00:25.779Z,98974.94
2022-11-15T21:02:55.607Z,98965.28
2022-11-15T21:05:25.155Z,98969.75
2022-11-15T21:07:54.725Z,98965.28
2022-11-15T21:10:36.739Z,98960.97
2022-11-15T21:13:08.895Z,98966.25
2022-11-15T21:15:38.456Z,98957.34
2022-11-15T21:18:08.347Z,98955.69
2022-11-15T21:20:37.902Z,98959.28
2022-11-15T21:23:07.507Z,98953.22
2022-11-15T21:25:37.165Z,98962.97
2022-11-15T21:28:09.463Z,98956.84
2022-11-15T21:30:40.013Z,98955.97
2022-11-15T21:33:09.605Z,98951.53
2022-11-15T21:35:39.166Z,98952.38
2022-11-15T21:38:08.745Z,98948.03
2022-11-15T21:40:38.305Z,98942.00
2022-11-15T21:43:10.514Z,98932.34
2022-11-15T21:45:40.084Z,98934.16
2022-11-15T21:48:09.999Z,98932.47
2022-11-15T21:50:39.560Z,98936.81
2022-11-15T21:53:09.181Z,98927.16
2022-11-15T21:55:42.286Z,98929.81
2022-11-15T21:58:14.524Z,98928.13
2022-11-15T22:00:56.557Z,98918.47
2022-11-15T22:03:26.185Z,98921.13
2022-11-15T22:05:56.239Z,98907.88
2022-11-15T22:08:25.891Z,98901.63
2022-11-15T22:10:56.838Z,98906.09
2022-11-15T22:13:29.323Z,98913.16
2022-11-15T22:15:59.195Z,98898.38
2022-11-15T22:18:29.080Z,98899.22
2022-11-15T22:20:59.331Z,98890.50
2022-11-15T22:23:30.167Z,98893.16
2022-11-15T22:25:59.927Z,98887.78
2022-11-15T22:28:32.811Z,98885.97
2022-11-15T22:31:03.245Z,98883.34
2022-11-15T22:33:34.423Z,98886.81
2022-11-15T22:36:04.369Z,98878.75
2022-11-15T22:38:34.737Z,98872.63
2022-11-15T22:41:04.585Z,98872.53
2022-11-15T22:43:36.801Z,98869.03
2022-11-15T22:46:07.039Z,98874.34
2022-11-15T22:48:38.374Z,98869.03
2022-11-15T22:51:09.261Z,98872.53
2022-11-15T22:53:38.982Z,98854.09
2022-11-15T22:56:09.215Z,98865.53
2022-11-15T22:58:42.306Z,98857.69
2022-11-15T23:01:22.166Z,98862.06
2022-11-15T23:03:51.785Z,98855.81
2022-11-15T23:06:21.442Z,98849.66
2022-11-15T23:08:51.206Z,98849.66
2022-11-15T23:11:33.195Z,98845.22
2022-11-15T23:14:05.608Z,98840.75
2022-11-15T23:16:39.776Z,98834.63
2022-11-15T23:19:10.374Z,98837.19
2022-11-15T23:21:53.690Z,98832.09
2022-11-15T23:24:23.830Z,98833.78
2022-11-15T23:26:55.127Z,98834.63
2022-11-15T23:29:28.831Z,98829.34
2022-11-15T23:32:11.994Z,98824.88
2022-11-15T23:34:43.839Z,98831.88
2022-11-15T23:37:14.666Z,98824.88
2022-11-15T23:39:44.221Z,98821.41
2022-11-15T23:42:20.126Z,98820.47
2022-11-15T23:44:52.551Z,98823.09
2022-11-15T23:47:22.614Z,98817.69
2022-11-15T23:49:52.352Z,98819.47
2022-11-15T23:52:23.121Z,98816.00
2022-11-15T23:54:52.699Z,98810.72
2022-11-15T23:57:23.266Z,98822.13
2022-11-15T23:59:55.827Z,98812.41
